Time;durP1;ratioP1;P1;durP2;ratioP2;P2;SDS_P1;SDS_P2;PMS_P1;PMS_P2;Temp;Humidity;BMP_temperature;BMP_pressure;BME280_temperature;BME280_humidity;BME280_pressure;Samples;Min_cycle;Max_cycle;Signal;HPM_P1;HPM_P2
2022/11/15 00:01:46;;;;;;;12.83;9.97;;;9.70;99.90;;;;;;5053764;28;20213;-66
2022/11/15 00:04:12;;;;;;;15.87;10.57;;;9.70;99.90;;;;;;5052462;28;20654;-66
2022/11/15 00:06:38;;;;;;;19.30;10.10;;;9.80;99.90;;;;;;5053892;28;20722;-66
2022/11/15 00:09:04;;;;;;;14.00;9.60;;;9.80;99.90;;;;;;5053640;28;20281;-66
2022/11/15 00:11:29;;;;;;;14.40;10.37;;;9.90;99.90;;;;;;5052544;28;20261;-66
2022/11/15 00:13:56;;;;;;;14.63;10.03;;;9.90;99.90;;;;;;5052355;28;20178;-66
2022/11/15 00:16:22;;;;;;;11.07;8.43;;;10.10;99.90;;;;;;5053582;28;20243;-66
2022/11/15 00:18:48;;;;;;;14.50;9.87;;;10.10;99.90;;;;;;5053516;28;20605;-66
2022/11/15 00:21:15;;;;;;;18.40;10.97;;;10.10;99.90;;;;;;5052248;28;20202;-66
2022/11/15 00:23:40;;;;;;;14.50;9.70;;;10.20;99.90;;;;;;5052479;28;20618;-66
2022/11/15 00:26:10;;;;;;;15.03;10.53;;;10.30;99.90;;;;;;5053919;28;20206;-66
2022/11/15 00:28:36;;;;;;;15.03;9.17;;;10.40;99.90;;;;;;5052266;28;20226;-66
2022/11/15 00:31:03;;;;;;;15.83;9.60;;;10.40;99.90;;;;;;5053827;28;20179;-66
2022/11/15 00:33:30;;;;;;;14.77;9.27;;;10.60;99.90;;;;;;5053596;28;20170;-66
2022/11/15 00:36:06;;;;;;;12.52;9.52;;;10.70;99.90;;;;;;5051984;28;20182;-66
2022/11/15 00:38:33;;;;;;;14.77;10.17;;;11.00;99.90;;;;;;5053206;28;20209;-66
2022/11/15 00:41:00;;;;;;;15.73;9.75;;;11.10;99.90;;;;;;5052691;28;20732;-66
2022/11/15 00:43:26;;;;;;;12.70;9.95;;;11.30;99.90;;;;;;5054310;28;20532;-66
2022/11/15 00:45:52;;;;;;;12.07;9.18;;;11.30;99.90;;;;;;5054267;28;20170;-66
2022/11/15 00:48:18;;;;;;;12.65;9.45;;;11.40;99.90;;;;;;5053233;28;20220;-66
2022/11/15 00:50:43;;;;;;;11.48;9.25;;;11.40;99.90;;;;;;5051914;28;20178;-66
2022/11/15 00:53:09;;;;;;;15.30;9.98;;;11.50;99.90;;;;;;5053815;28;20174;-65
2022/11/15 00:55:35;;;;;;;12.48;9.10;;;11.60;99.90;;;;;;5053290;28;20635;-66
2022/11/15 00:58:01;;;;;;;12.68;9.38;;;11.70;99.90;;;;;;5053058;28;20248;-66
2022/11/15 01:00:27;;;;;;;10.55;8.45;;;11.70;99.90;;;;;;5053006;28;20205;-66
2022/11/15 01:02:53;;;;;;;15.90;9.30;;;11.80;99.90;;;;;;5053229;28;20635;-66
2022/11/15 01:05:18;;;;;;;10.85;8.63;;;11.80;99.90;;;;;;5055688;28;20178;-66
2022/11/15 01:07:44;;;;;;;12.15;8.82;;;11.80;99.90;;;;;;5055717;28;20251;-66
2022/11/15 01:10:10;;;;;;;11.60;8.20;;;11.90;99.90;;;;;;5055725;28;20232;-66
2022/11/15 01:12:36;;;;;;;10.10;7.97;;;11.90;99.90;;;;;;5057550;28;20524;-66
2022/11/15 01:15:03;;;;;;;12.90;8.63;;;11.80;99.90;;;;;;5055671;28;20178;-66
2022/11/15 01:17:30;;;;;;;15.52;8.82;;;11.80;99.90;;;;;;5056983;28;20191;-66
2022/11/15 01:19:57;;;;;;;11.38;8.68;;;11.80;99.90;;;;;;5055603;28;20693;-66
2022/11/15 01:22:23;;;;;;;12.98;8.20;;;11.80;99.90;;;;;;5056940;28;20201;-66
2022/11/15 01:24:52;;;;;;;10.30;8.30;;;11.90;99.90;;;;;;5057111;28;20167;-66
2022/11/15 01:27:18;;;;;;;12.00;7.97;;;11.90;99.90;;;;;;5056682;28;20190;-66
2022/11/15 01:29:43;;;;;;;13.10;8.90;;;11.90;99.90;;;;;;5056845;28;20205;-66
2022/11/15 01:32:09;;;;;;;15.00;9.20;;;11.90;99.90;;;;;;5055429;28;20573;-65
2022/11/15 01:34:35;;;;;;;11.65;9.20;;;12.00;99.90;;;;;;5056591;28;20174;-66
2022/11/15 01:37:01;;;;;;;14.07;8.90;;;11.90;99.90;;;;;;5055214;28;20182;-66
2022/11/15 01:39:27;;;;;;;15.50;8.60;;;11.90;99.90;;;;;;5056636;28;20210;-66
2022/11/15 01:41:52;;;;;;;16.67;10.60;;;12.00;99.90;;;;;;5056557;28;20247;-65
2022/11/15 01:44:33;;;;;;;13.45;9.15;;;12.00;99.90;;;;;;5056486;28;20175;-66
2022/11/15 01:47:02;;;;;;;17.80;8.67;;;12.00;99.90;;;;;;5056338;28;20247;-66
2022/11/15 01:49:32;;;;;;;11.68;8.73;;;12.00;99.90;;;;;;5056232;28;20728;-66
2022/11/15 01:52:00;;;;;;;14.35;8.13;;;12.00;99.90;;;;;;5055082;28;20655;-66
2022/11/15 01:54:26;;;;;;;12.23;9.48;;;12.00;99.90;;;;;;5056211;28;20675;-66
2022/11/15 01:57:03;;;;;;;13.07;8.93;;;12.00;99.90;;;;;;5054983;28;20221;-66
2022/11/15 01:59:29;;;;;;;12.57;8.60;;;12.00;99.90;;;;;;5057332;28;20190;-66
2022/11/15 02:01:55;;;;;;;13.07;8.70;;;12.00;99.90;;;;;;5055839;28;20663;-66
2022/11/15 02:04:27;;;;;;;12.55;8.25;;;12.00;99.90;;;;;;5056052;28;20178;-66
2022/11/15 02:06:53;;;;;;;13.60;8.95;;;12.00;99.90;;;;;;5055992;28;20171;-66
2022/11/15 02:09:20;;;;;;;12.68;8.18;;;12.00;99.90;;;;;;5054611;28;20221;-66
2022/11/15 02:11:47;;;;;;;14.27;8.48;;;12.00;99.90;;;;;;5054634;28;20170;-66
2022/11/15 02:14:16;;;;;;;13.23;8.43;;;11.90;99.90;;;;;;5056200;28;20178;-66
2022/11/15 02:17:03;;;;;;;12.75;9.00;;;11.90;99.90;;;;;;5055447;28;20201;-66
2022/11/15 02:19:31;;;;;;;11.33;8.30;;;11.90;99.90;;;;;;5056113;28;20190;-66
2022/11/15 02:22:27;;;;;;;11.68;8.88;;;11.80;99.90;;;;;;5055632;28;20206;-66
2022/11/15 02:25:38;;;;;;;11.98;8.60;;;11.80;99.90;;;;;;5055681;28;20516;-66
2022/11/15 02:28:04;;;;;;;10.98;8.45;;;11.90;99.90;;;;;;5054379;28;20198;-66
2022/11/15 02:30:44;;;;;;;10.33;8.50;;;11.80;99.90;;;;;;5055719;28;20189;-71
2022/11/15 02:33:39;;;;;;;11.75;8.10;;;11.80;99.90;;;;;;5054342;28;20185;-70
2022/11/15 02:36:43;;;;;;;14.47;9.17;;;11.70;99.90;;;;;;5055479;28;20685;-70
2022/11/15 02:39:20;;;;;;;11.15;8.57;;;11.90;99.90;;;;;;5054045;28;20675;-70
2022/11/15 02:42:02;;;;;;;19.02;8.77;;;11.90;99.90;;;;;;5054201;28;20182;-70
2022/11/15 02:44:40;;;;;;;13.52;8.80;;;11.80;99.90;;;;;;5055663;28;20186;-70
2022/11/15 02:47:13;;;;;;;11.95;8.65;;;11.80;99.90;;;;;;5054021;28;20202;-71
2022/11/15 02:49:48;;;;;;;14.73;9.95;;;11.70;99.90;;;;;;5055524;28;20272;-70
2022/11/15 02:52:19;;;;;;;12.80;8.82;;;11.70;99.90;;;;;;5055461;28;20154;-72
2022/11/15 02:54:55;;;;;;;11.32;9.02;;;11.70;99.90;;;;;;5055216;28;20186;-70
2022/11/15 02:57:32;;;;;;;11.48;8.68;;;11.80;99.90;;;;;;5053747;28;20690;-70
2022/11/15 03:00:10;;;;;;;15.85;9.20;;;11.70;99.90;;;;;;5053796;28;20204;-70
2022/11/15 03:02:54;;;;;;;12.40;8.95;;;11.70;99.90;;;;;;5053586;28;20666;-70
2022/11/15 03:05:37;;;;;;;12.55;9.10;;;11.70;99.90;;;;;;5053706;28;20303;-71
2022/11/15 03:08:22;;;;;;;13.23;8.75;;;11.70;99.90;;;;;;5053718;28;20206;-70
2022/11/15 03:11:11;;;;;;;12.07;8.33;;;11.70;99.90;;;;;;5055292;28;20162;-70
2022/11/15 03:13:47;;;;;;;11.32;8.75;;;11.70;99.90;;;;;;5053504;28;20620;-70
2022/11/15 03:16:24;;;;;;;10.45;8.25;;;11.70;99.90;;;;;;5054783;28;20164;-70
2022/11/15 03:19:06;;;;;;;10.40;8.50;;;11.70;99.90;;;;;;5054666;28;20205;-71
2022/11/15 03:21:34;;;;;;;15.23;9.23;;;11.70;99.90;;;;;;5054667;28;20158;-70
2022/11/15 03:24:05;;;;;;;10.50;7.78;;;11.80;99.90;;;;;;5054933;28;20249;-70
2022/11/15 03:26:33;;;;;;;13.75;8.27;;;11.90;99.90;;;;;;5054208;28;20218;-70
2022/11/15 03:29:04;;;;;;;12.57;8.43;;;12.00;99.90;;;;;;5053460;28;20191;-71
2022/11/15 03:31:46;;;;;;;11.90;8.27;;;12.10;99.90;;;;;;5054794;28;20635;-70
2022/11/15 03:34:26;;;;;;;8.50;7.60;;;12.10;99.90;;;;;;5053189;28;20261;-70
2022/11/15 03:36:52;;;;;;;11.27;8.18;;;12.10;99.90;;;;;;5053148;28;20174;-70
2022/11/15 03:39:19;;;;;;;9.70;7.47;;;12.10;99.90;;;;;;5053004;28;20187;-70
2022/11/15 03:42:11;;;;;;;9.60;7.13;;;12.00;99.90;;;;;;5054185;28;20631;-71
2022/11/15 03:44:42;;;;;;;9.15;6.85;;;12.00;99.90;;;;;;5052658;28;20193;-70
2022/11/15 03:47:15;;;;;;;9.25;6.68;;;12.00;99.90;;;;;;5052819;28;20221;-71
2022/11/15 03:49:46;;;;;;;9.02;7.25;;;11.90;99.90;;;;;;5054611;28;20168;-70
2022/11/15 03:52:12;;;;;;;9.05;6.95;;;11.90;99.90;;;;;;5052727;28;20205;-70
2022/11/15 03:54:49;;;;;;;9.88;7.13;;;11.90;99.90;;;;;;5053977;28;20609;-70
2022/11/15 03:57:14;;;;;;;9.80;7.20;;;11.90;99.90;;;;;;5053840;28;20244;-70
2022/11/15 03:59:40;;;;;;;10.95;7.70;;;11.90;99.90;;;;;;5053898;28;20198;-70
2022/11/15 04:02:06;;;;;;;10.27;7.00;;;12.00;99.90;;;;;;5053895;28;20273;-70
2022/11/15 04:04:32;;;;;;;9.70;7.25;;;12.00;99.90;;;;;;5052463;28;20187;-72
2022/11/15 04:06:57;;;;;;;8.30;6.95;;;12.00;99.90;;;;;;5052580;28;20213;-70
2022/11/15 04:09:23;;;;;;;10.38;7.20;;;12.10;99.90;;;;;;5053878;28;20270;-70
2022/11/15 04:11:49;;;;;;;10.23;7.80;;;12.10;99.90;;;;;;5053840;28;20182;-70
2022/11/15 04:14:14;;;;;;;11.80;7.63;;;12.10;99.90;;;;;;5053970;28;20185;-70
2022/11/15 04:16:40;;;;;;;9.85;7.65;;;12.20;99.90;;;;;;5055567;28;20162;-70
2022/11/15 04:24:34;;;;;;;8.57;7.43;;;12.20;99.90;;;;;;5053662;28;20197;-70
2022/11/15 04:27:00;;;;;;;11.98;7.82;;;12.30;99.90;;;;;;5052049;28;20583;-71
2022/11/15 04:29:35;;;;;;;11.30;7.72;;;12.30;99.90;;;;;;5053924;28;20174;-70
2022/11/15 04:32:05;;;;;;;9.77;7.40;;;12.30;99.90;;;;;;5054165;28;20165;-71
2022/11/15 04:34:32;;;;;;;9.40;7.65;;;12.20;99.90;;;;;;5053272;28;20268;-69
2022/11/15 04:37:13;;;;;;;10.82;8.07;;;12.20;99.90;;;;;;5053397;28;20182;-71
2022/11/15 04:39:40;;;;;;;12.48;8.68;;;12.10;99.90;;;;;;5053326;28;20206;-71
2022/11/15 04:42:06;;;;;;;10.05;8.25;;;12.20;99.90;;;;;;5053650;28;20213;-71
2022/11/15 04:44:31;;;;;;;12.77;8.35;;;12.20;99.90;;;;;;5053311;28;20630;-70
2022/11/15 04:46:57;;;;;;;12.55;8.45;;;12.20;99.90;;;;;;5053707;28;20170;-70
2022/11/15 04:49:23;;;;;;;10.57;8.05;;;12.20;99.90;;;;;;5053342;28;20174;-70
2022/11/15 04:51:48;;;;;;;10.57;8.43;;;12.20;99.90;;;;;;5053241;28;20304;-70
2022/11/15 04:54:14;;;;;;;9.50;7.70;;;12.20;99.90;;;;;;5053770;28;20166;-71
2022/11/15 04:56:40;;;;;;;10.38;8.00;;;12.20;99.90;;;;;;5053176;28;20194;-71
2022/11/15 04:59:06;;;;;;;11.43;9.20;;;12.30;99.90;;;;;;5051865;28;20683;-71
2022/11/15 05:01:31;;;;;;;11.77;8.45;;;12.30;99.90;;;;;;5052978;28;20210;-71
2022/11/15 05:06:41;;;;;;;9.70;7.00;;;12.30;99.90;;;;;;5053197;28;20170;-71
2022/11/15 05:09:07;;;;;;;11.23;7.50;;;12.30;99.90;;;;;;5053253;28;20198;-71
2022/11/15 05:11:33;;;;;;;9.48;7.60;;;12.30;99.90;;;;;;5053373;28;20175;-71
2022/11/15 05:13:59;;;;;;;10.60;7.10;;;12.30;99.90;;;;;;5053379;28;20209;-71
2022/11/15 05:16:25;;;;;;;9.40;7.38;;;12.30;99.90;;;;;;5053489;28;20228;-70
2022/11/15 05:18:52;;;;;;;11.07;7.72;;;12.30;99.90;;;;;;5053159;28;20205;-71
2022/11/15 05:21:18;;;;;;;8.27;7.28;;;12.30;99.90;;;;;;5051475;28;20198;-70
2022/11/15 05:23:44;;;;;;;8.27;7.45;;;12.30;99.90;;;;;;5053734;28;20571;-70
2022/11/15 05:26:09;;;;;;;8.07;6.93;;;12.30;99.90;;;;;;5053506;28;20182;-70
2022/11/15 05:28:36;;;;;;;9.40;6.85;;;12.30;99.90;;;;;;5052804;28;20190;-70
2022/11/15 05:31:20;;;;;;;9.43;7.38;;;12.30;99.90;;;;;;5052972;28;20197;-70
2022/11/15 05:33:46;;;;;;;9.18;6.93;;;12.20;99.90;;;;;;5053063;28;20256;-70
2022/11/15 05:36:16;;;;;;;8.83;7.13;;;12.30;99.90;;;;;;5052615;28;20265;-70
2022/11/15 05:38:42;;;;;;;8.53;6.90;;;12.30;99.90;;;;;;5051564;28;20559;-70
2022/11/15 05:41:08;;;;;;;11.63;7.33;;;12.30;99.90;;;;;;5051322;28;20202;-70
2022/11/15 05:43:36;;;;;;;7.50;6.33;;;12.30;99.90;;;;;;5051545;28;20179;-70
2022/11/15 05:46:04;;;;;;;8.97;6.97;;;12.30;99.90;;;;;;5053114;28;20504;-70
2022/11/15 05:48:31;;;;;;;8.75;7.38;;;12.30;99.90;;;;;;5052756;28;20249;-70
2022/11/15 05:50:58;;;;;;;8.50;6.67;;;12.30;99.90;;;;;;5053215;28;20185;-70
2022/11/15 05:53:25;;;;;;;8.90;6.60;;;12.30;99.90;;;;;;5056294;28;20175;-70
2022/11/15 05:55:51;;;;;;;8.20;6.80;;;12.20;99.90;;;;;;5056112;28;20228;-70
2022/11/15 05:58:19;;;;;;;7.38;6.30;;;12.20;99.90;;;;;;5056023;28;20655;-70
2022/11/15 06:00:45;;;;;;;8.93;6.05;;;12.20;99.90;;;;;;5056105;28;20310;-70
2022/11/15 06:03:10;;;;;;;6.78;6.05;;;12.20;99.90;;;;;;5056391;28;20521;-70
2022/11/15 06:05:36;;;;;;;10.90;6.13;;;12.10;99.90;;;;;;5056083;28;20174;-70
2022/11/15 06:08:02;;;;;;;8.70;6.80;;;12.10;99.90;;;;;;5055996;28;20237;-70
2022/11/15 06:10:28;;;;;;;7.53;6.10;;;12.00;99.90;;;;;;5055938;28;20185;-70
2022/11/15 06:13:01;;;;;;;7.97;6.10;;;12.00;99.90;;;;;;5055815;28;20170;-70
2022/11/15 06:15:28;;;;;;;7.78;5.95;;;12.00;99.90;;;;;;5056394;28;20196;-70
2022/11/15 06:17:57;;;;;;;6.28;5.68;;;11.90;99.90;;;;;;5056039;28;20217;-70
2022/11/15 06:20:27;;;;;;;7.07;5.45;;;11.90;99.90;;;;;;5055261;28;20690;-70
2022/11/15 06:23:03;;;;;;;6.68;5.70;;;12.00;99.90;;;;;;5055639;28;20296;-70
2022/11/15 06:25:30;;;;;;;6.00;5.40;;;12.00;99.90;;;;;;5054396;28;20181;-70
2022/11/15 06:27:59;;;;;;;6.30;5.70;;;12.00;99.90;;;;;;5054395;28;20221;-70
2022/11/15 06:30:26;;;;;;;6.15;5.07;;;12.00;99.90;;;;;;5055608;28;20253;-70
2022/11/15 06:32:57;;;;;;;7.20;5.63;;;11.90;99.90;;;;;;5055760;28;20174;-70
2022/11/15 06:35:23;;;;;;;5.95;5.30;;;11.90;99.90;;;;;;5054200;28;20179;-70
2022/11/15 06:37:49;;;;;;;5.38;4.88;;;12.00;99.90;;;;;;5055800;28;20569;-70
2022/11/15 06:40:15;;;;;;;7.32;5.20;;;12.00;99.90;;;;;;5054332;28;20202;-70
2022/11/15 06:42:41;;;;;;;5.22;4.65;;;12.10;99.90;;;;;;5056314;28;20155;-70
2022/11/15 06:45:07;;;;;;;5.53;5.00;;;12.10;99.90;;;;;;5054193;28;20174;-70
2022/11/15 06:47:33;;;;;;;5.30;4.72;;;12.10;99.90;;;;;;5054338;28;20201;-70
2022/11/15 06:49:59;;;;;;;5.30;4.80;;;12.10;99.90;;;;;;5055274;28;20257;-70
2022/11/15 06:52:24;;;;;;;5.78;4.38;;;12.10;99.90;;;;;;5053979;28;20606;-70
2022/11/15 06:54:50;;;;;;;5.05;4.47;;;12.20;99.90;;;;;;5055079;28;20623;-70
2022/11/15 06:57:16;;;;;;;4.50;4.07;;;12.20;99.90;;;;;;5055202;28;20194;-66
2022/11/15 06:59:41;;;;;;;5.07;4.13;;;12.20;99.90;;;;;;5055916;28;20281;-66
2022/11/15 07:02:13;;;;;;;4.60;4.20;;;12.30;99.90;;;;;;5053591;28;20243;-66
2022/11/15 07:04:38;;;;;;;4.55;4.00;;;12.30;99.90;;;;;;5053548;28;20635;-66
2022/11/15 07:07:04;;;;;;;4.35;3.95;;;12.30;99.90;;;;;;5054544;28;20187;-66
2022/11/15 07:09:30;;;;;;;4.00;3.63;;;12.30;99.90;;;;;;5055018;28;20576;-66
2022/11/15 07:11:56;;;;;;;4.20;3.80;;;12.30;99.90;;;;;;5054882;28;20174;-66
2022/11/15 07:14:21;;;;;;;4.43;4.03;;;12.40;99.90;;;;;;5053449;28;20253;-66
2022/11/15 07:16:47;;;;;;;4.13;3.78;;;12.40;99.90;;;;;;5054343;28;20170;-66
2022/11/15 07:19:13;;;;;;;3.72;3.45;;;12.40;99.90;;;;;;5054812;28;20166;-66
2022/11/15 07:21:38;;;;;;;6.10;3.60;;;12.40;99.90;;;;;;5053169;28;20190;-66
2022/11/15 07:24:04;;;;;;;5.00;4.47;;;12.40;99.90;;;;;;5054680;28;20162;-66
2022/11/15 07:26:30;;;;;;;6.43;4.32;;;12.40;99.90;;;;;;5054253;28;20174;-66
2022/11/15 07:28:56;;;;;;;4.78;3.67;;;12.40;99.90;;;;;;5054174;28;20659;-66
2022/11/15 07:31:22;;;;;;;6.00;3.70;;;12.40;99.90;;;;;;5052986;28;20209;-66
2022/11/15 07:33:48;;;;;;;4.45;3.88;;;12.30;99.90;;;;;;5053240;28;20221;-72
2022/11/15 07:36:13;;;;;;;4.25;3.90;;;12.30;99.90;;;;;;5054429;28;20182;-71
2022/11/15 07:38:39;;;;;;;5.38;3.67;;;12.30;99.90;;;;;;5054226;28;20663;-71
2022/11/15 07:41:06;;;;;;;4.38;3.97;;;12.30;99.90;;;;;;5052718;28;20206;-68
2022/11/15 07:43:35;;;;;;;4.13;3.75;;;12.20;99.90;;;;;;5054124;28;20194;-68
2022/11/15 07:46:11;;;;;;;3.95;3.60;;;12.30;99.90;;;;;;5053984;28;20524;-66
2022/11/15 07:48:39;;;;;;;4.32;3.92;;;12.30;99.90;;;;;;5052648;28;20202;-66
2022/11/15 07:51:06;;;;;;;5.22;3.88;;;12.30;99.90;;;;;;5052283;28;20181;-66
2022/11/15 07:53:32;;;;;;;6.68;3.70;;;12.20;99.90;;;;;;5053759;28;20678;-66
2022/11/15 07:55:58;;;;;;;3.70;3.40;;;12.20;99.90;;;;;;5054075;28;20213;-66
2022/11/15 07:58:23;;;;;;;3.50;3.20;;;12.20;99.90;;;;;;5053605;28;20685;-67
2022/11/15 08:00:49;;;;;;;3.90;3.50;;;12.20;99.90;;;;;;5053531;28;20210;-66
2022/11/15 08:03:16;;;;;;;4.30;3.70;;;12.20;99.90;;;;;;5052835;28;20171;-67
2022/11/15 08:05:43;;;;;;;3.70;3.40;;;12.20;99.90;;;;;;5053486;28;20200;-66
2022/11/15 08:08:10;;;;;;;3.97;3.47;;;12.20;99.90;;;;;;5053630;28;20223;-66
2022/11/15 08:10:37;;;;;;;3.97;3.63;;;12.20;99.90;;;;;;5053850;28;20173;-66
2022/11/15 08:13:11;;;;;;;3.90;3.50;;;12.20;99.90;;;;;;5053267;28;20193;-66
2022/11/15 08:15:37;;;;;;;3.47;3.17;;;12.20;99.90;;;;;;5053541;28;20162;-66
2022/11/15 08:18:09;;;;;;;3.75;3.45;;;12.20;99.90;;;;;;5053327;28;20205;-66
2022/11/15 08:20:35;;;;;;;5.20;3.58;;;12.20;99.90;;;;;;5053320;28;20191;-66
2022/11/15 08:23:02;;;;;;;3.33;3.10;;;12.20;99.90;;;;;;5053413;28;20174;-66
2022/11/15 08:25:30;;;;;;;3.63;3.22;;;12.20;99.90;;;;;;5052120;28;20178;-66
2022/11/15 08:27:58;;;;;;;3.20;3.00;;;12.20;99.90;;;;;;5053461;28;20218;-66
2022/11/15 08:30:24;;;;;;;4.13;3.50;;;12.30;99.90;;;;;;5053257;28;20233;-66
2022/11/15 08:32:51;;;;;;;3.47;3.17;;;12.30;99.90;;;;;;5053605;28;20209;-66
2022/11/15 08:35:18;;;;;;;3.63;3.33;;;12.30;99.90;;;;;;5051844;28;20217;-66
2022/11/15 08:37:44;;;;;;;3.47;3.20;;;12.30;99.90;;;;;;5052143;28;20205;-67
2022/11/15 08:40:10;;;;;;;4.68;3.10;;;12.30;99.90;;;;;;5053751;28;20266;-67
2022/11/15 08:42:36;;;;;;;3.22;3.03;;;12.40;99.90;;;;;;5053754;28;20174;-67
2022/11/15 08:45:03;;;;;;;4.80;3.03;;;12.40;99.90;;;;;;5053493;28;20235;-67
2022/11/15 08:47:28;;;;;;;4.22;3.72;;;12.40;99.90;;;;;;5053156;28;20560;-67
2022/11/15 08:49:54;;;;;;;3.53;3.00;;;12.50;99.90;;;;;;5053162;28;20228;-67
2022/11/15 08:52:20;;;;;;;3.40;3.10;;;12.50;99.90;;;;;;5053109;28;20191;-67
2022/11/15 08:54:46;;;;;;;3.47;3.17;;;12.50;99.90;;;;;;5053087;28;20182;-67
2022/11/15 08:57:12;;;;;;;3.40;3.10;;;12.50;99.90;;;;;;5053241;28;20209;-67
2022/11/15 08:59:38;;;;;;;3.60;3.05;;;12.50;99.90;;;;;;5052936;28;20734;-67
2022/11/15 09:02:04;;;;;;;3.38;2.95;;;12.60;99.90;;;;;;5052847;28;20273;-67
2022/11/15 09:04:30;;;;;;;3.17;2.88;;;12.60;99.90;;;;;;5053268;28;20257;-67
2022/11/15 09:06:56;;;;;;;4.07;3.30;;;12.60;99.90;;;;;;5052877;28;20237;-67
2022/11/15 09:09:22;;;;;;;4.03;3.63;;;12.70;99.90;;;;;;5053283;28;20190;-68
2022/11/15 09:11:48;;;;;;;4.35;2.88;;;12.70;99.90;;;;;;5053229;28;20183;-69
2022/11/15 09:14:14;;;;;;;3.85;3.00;;;12.70;99.90;;;;;;5053204;28;20237;-68
2022/11/15 09:16:40;;;;;;;3.20;3.00;;;12.80;99.90;;;;;;5053026;28;20163;-69
2022/11/15 09:19:06;;;;;;;2.92;2.60;;;12.80;99.90;;;;;;5052550;28;20565;-70
2022/11/15 09:21:32;;;;;;;5.63;2.90;;;12.80;99.90;;;;;;5052657;28;20206;-69
2022/11/15 09:23:58;;;;;;;4.38;3.13;;;12.80;99.90;;;;;;5053189;28;20226;-69
2022/11/15 09:26:24;;;;;;;3.00;2.80;;;12.80;99.90;;;;;;5055519;28;20227;-69
2022/11/15 09:28:50;;;;;;;5.22;3.03;;;12.90;99.90;;;;;;5056925;28;20296;-69
2022/11/15 09:31:16;;;;;;;3.25;2.90;;;12.90;99.90;;;;;;5055329;28;20190;-69
2022/11/15 09:33:45;;;;;;;3.08;2.80;;;12.90;99.90;;;;;;5055317;28;20255;-69
2022/11/15 09:36:11;;;;;;;3.03;2.80;;;13.00;99.90;;;;;;5056389;28;20665;-69
2022/11/15 09:38:37;;;;;;;4.90;2.83;;;12.90;99.90;;;;;;5056491;28;20206;-69
2022/11/15 09:41:12;;;;;;;3.08;2.88;;;12.90;99.90;;;;;;5056425;28;20655;-69
2022/11/15 09:44:07;;;;;;;3.97;3.10;;;13.00;99.90;;;;;;5055114;28;20185;-69
2022/11/15 09:46:55;;;;;;;4.38;2.72;;;13.00;99.90;;;;;;5055121;28;20174;-70
2022/11/15 09:49:21;;;;;;;5.20;3.20;;;13.00;99.90;;;;;;5055201;28;20198;-68
2022/11/15 09:51:52;;;;;;;2.90;2.70;;;13.00;99.90;;;;;;5056179;28;20628;-68
2022/11/15 09:54:36;;;;;;;3.17;2.90;;;13.00;99.90;;;;;;5056578;28;20155;-68
2022/11/15 09:57:16;;;;;;;3.28;3.08;;;13.00;99.90;;;;;;5056101;28;20289;-68
2022/11/15 10:00:07;;;;;;;3.03;2.83;;;13.00;99.90;;;;;;5054883;28;20199;-67
2022/11/15 10:02:48;;;;;;;3.65;2.88;;;13.10;99.90;;;;;;5056214;28;20186;-67
2022/11/15 10:05:19;;;;;;;4.80;2.90;;;13.10;99.90;;;;;;5056258;28;20161;-68
2022/11/15 10:07:56;;;;;;;2.92;2.72;;;13.10;99.90;;;;;;5056245;28;20233;-68
2022/11/15 10:10:41;;;;;;;3.58;2.78;;;13.20;99.90;;;;;;5055995;28;20623;-67
2022/11/15 10:13:31;;;;;;;2.78;2.60;;;13.20;99.90;;;;;;5055871;28;20599;-67
2022/11/15 10:16:17;;;;;;;2.88;2.67;;;13.20;99.90;;;;;;5054544;28;20167;-67
2022/11/15 10:19:04;;;;;;;3.30;3.00;;;13.30;99.90;;;;;;5056047;28;20216;-67
2022/11/15 10:21:53;;;;;;;4.25;2.50;;;13.30;99.90;;;;;;5054268;28;20286;-67
2022/11/15 10:24:25;;;;;;;3.50;2.85;;;13.50;99.90;;;;;;5055764;28;20159;-68
2022/11/15 10:26:51;;;;;;;3.13;2.90;;;13.60;99.90;;;;;;5054321;28;20681;-68
2022/11/15 10:29:20;;;;;;;2.80;2.60;;;13.70;99.90;;;;;;5055760;28;20246;-68
2022/11/15 10:31:47;;;;;;;2.97;2.72;;;13.90;99.90;;;;;;5055616;28;20174;-68
2022/11/15 10:34:24;;;;;;;3.65;2.65;;;14.10;99.90;;;;;;5054234;28;20232;-68
2022/11/15 10:36:58;;;;;;;3.22;2.90;;;14.20;99.90;;;;;;5053705;28;20613;-68
2022/11/15 10:39:25;;;;;;;3.20;2.90;;;14.20;99.90;;;;;;5055379;28;20201;-68
2022/11/15 10:41:51;;;;;;;2.83;2.60;;;14.20;99.90;;;;;;5056170;28;20580;-68
2022/11/15 10:44:17;;;;;;;4.10;2.80;;;14.10;99.90;;;;;;5054024;28;20179;-68
2022/11/15 10:46:48;;;;;;;2.90;2.70;;;14.10;99.90;;;;;;5055180;28;20175;-68
2022/11/15 10:49:25;;;;;;;2.75;2.55;;;14.20;99.90;;;;;;5053785;28;20174;-67
2022/11/15 10:52:04;;;;;;;4.03;2.90;;;14.20;99.90;;;;;;5055002;28;20166;-67
2022/11/15 10:54:44;;;;;;;4.60;3.03;;;14.20;99.90;;;;;;5053810;28;20174;-67
2022/11/15 10:57:28;;;;;;;4.45;2.58;;;14.20;99.90;;;;;;5053753;28;20197;-67
2022/11/15 11:00:07;;;;;;;3.13;2.80;;;14.40;99.90;;;;;;5053741;28;20206;-67
2022/11/15 11:02:37;;;;;;;3.20;2.72;;;14.50;99.90;;;;;;5054809;28;20192;-68
2022/11/15 11:05:24;;;;;;;2.78;2.58;;;14.50;99.90;;;;;;5054831;28;20216;-67
2022/11/15 11:08:18;;;;;;;2.58;2.40;;;14.50;99.90;;;;;;5054694;28;20288;-68
2022/11/15 11:10:55;;;;;;;4.28;2.90;;;14.40;99.90;;;;;;5050530;28;20651;-67
2022/11/15 11:13:27;;;;;;;2.75;2.55;;;14.40;99.90;;;;;;5054576;28;20196;-68
2022/11/15 11:16:13;;;;;;;2.60;2.40;;;14.40;99.90;;;;;;5054964;28;20167;-67
2022/11/15 11:19:06;;;;;;;3.25;2.42;;;14.40;99.90;;;;;;5053393;28;20301;-67
2022/11/15 11:21:35;;;;;;;4.22;2.50;;;14.50;99.90;;;;;;5054452;28;20224;-68
2022/11/15 11:24:14;;;;;;;4.78;2.50;;;14.70;99.90;;;;;;5054547;28;20171;-67
2022/11/15 11:26:59;;;;;;;2.75;2.50;;;14.70;99.90;;;;;;5054757;28;20158;-68
2022/11/15 11:29:57;;;;;;;2.90;2.63;;;14.90;99.90;;;;;;5054909;28;20185;-68
2022/11/15 11:32:26;;;;;;;2.70;2.50;;;15.10;99.90;;;;;;5054877;28;20170;-68
2022/11/15 11:35:11;;;;;;;3.05;2.60;;;15.30;99.90;;;;;;5054205;28;20181;-68
2022/11/15 11:37:54;;;;;;;4.05;2.65;;;15.40;99.90;;;;;;5054376;28;20595;-68
2022/11/15 11:40:34;;;;;;;3.00;2.65;;;15.60;99.90;;;;;;5054127;28;20201;-68
2022/11/15 11:43:55;;;;;;;2.70;2.30;;;15.70;99.90;;;;;;5053051;28;20264;-68
2022/11/15 11:46:53;;;;;;;2.40;2.30;;;15.90;99.90;;;;;;5040570;28;20198;-70
2022/11/15 11:49:26;;;;;;;2.70;2.50;;;15.70;99.90;;;;;;5053615;28;20655;-70
2022/11/15 11:51:58;;;;;;;3.85;2.30;;;15.70;99.90;;;;;;5053392;28;20174;-70
2022/11/15 11:54:35;;;;;;;2.80;2.58;;;15.80;99.90;;;;;;5052448;28;20179;-70
2022/11/15 11:57:06;;;;;;;2.95;2.17;;;15.90;99.90;;;;;;5053390;28;20216;-70
2022/11/15 11:59:55;;;;;;;4.28;2.70;;;15.90;99.90;;;;;;5052042;28;20269;-70
2022/11/15 12:02:26;;;;;;;6.38;2.53;;;15.90;99.90;;;;;;5053308;28;20179;-70
2022/11/15 12:05:01;;;;;;;2.50;2.30;;;15.90;99.90;;;;;;5053456;28;20187;-70
2022/11/15 12:07:33;;;;;;;2.65;2.42;;;15.80;99.90;;;;;;5054720;28;20190;-69
2022/11/15 12:10:15;;;;;;;2.80;2.58;;;15.80;99.90;;;;;;5033888;28;20171;-71
2022/11/15 12:13:15;;;;;;;3.90;2.65;;;15.80;99.90;;;;;;5034470;28;20167;-71
2022/11/15 12:16:02;;;;;;;3.22;2.20;;;15.80;99.90;;;;;;5032506;28;20172;-71
2022/11/15 12:18:29;;;;;;;2.50;2.30;;;15.90;99.90;;;;;;5033915;28;20221;-71
2022/11/15 12:21:01;;;;;;;2.47;2.30;;;16.00;99.90;;;;;;5034134;28;20260;-71
2022/11/15 12:23:41;;;;;;;2.55;2.35;;;16.10;99.90;;;;;;5034047;28;20635;-71
2022/11/15 12:26:17;;;;;;;3.58;2.40;;;16.00;99.90;;;;;;5032322;28;20175;-71
2022/11/15 12:29:04;;;;;;;2.40;2.20;;;15.90;99.90;;;;;;5032785;28;20194;-71
2022/11/15 12:31:40;;;;;;;2.92;2.65;;;15.50;99.90;;;;;;5033664;28;20687;-71
2022/11/15 12:34:21;;;;;;;2.50;2.30;;;15.20;99.90;;;;;;5033891;28;20246;-71
2022/11/15 12:36:49;;;;;;;3.40;2.38;;;15.00;99.90;;;;;;5033432;28;20179;-70
2022/11/15 12:39:16;;;;;;;3.55;2.50;;;15.00;99.90;;;;;;5048531;28;20186;-71
2022/11/15 12:42:02;;;;;;;3.30;2.33;;;15.00;99.90;;;;;;5052082;28;20225;-71
2022/11/15 12:44:30;;;;;;;2.75;2.55;;;15.20;99.90;;;;;;5053335;28;20178;-71
2022/11/15 12:46:56;;;;;;;2.42;2.25;;;15.30;99.90;;;;;;5052012;28;20179;-71
2022/11/15 12:49:28;;;;;;;2.60;2.30;;;15.20;99.90;;;;;;5052020;28;20597;-71
2022/11/15 12:51:56;;;;;;;2.58;2.30;;;15.30;99.90;;;;;;5053133;28;20171;-71
2022/11/15 12:54:22;;;;;;;2.90;2.22;;;15.10;99.90;;;;;;5053172;28;20200;-71
2022/11/15 12:57:14;;;;;;;4.20;2.50;;;14.90;99.90;;;;;;5053102;28;20167;-71
2022/11/15 12:59:53;;;;;;;2.50;2.30;;;14.80;99.90;;;;;;5045608;28;20186;-71
2022/11/15 13:02:27;;;;;;;4.03;2.40;;;14.80;99.90;;;;;;5055920;28;20543;-71
2022/11/15 13:05:22;;;;;;;2.63;2.30;;;14.80;99.90;;;;;;5057210;28;20162;-71
2022/11/15 13:07:49;;;;;;;5.65;2.72;;;14.80;99.90;;;;;;5057014;28;20222;-71
2022/11/15 13:10:29;;;;;;;3.80;2.28;;;14.80;99.90;;;;;;5055901;28;20181;-71
2022/11/15 13:12:58;;;;;;;2.35;2.10;;;14.70;99.90;;;;;;5055767;28;20239;-71